createdAt,value
2022-12-08T00:00:09.992Z,961.06
2022-12-08T00:00:59.914Z,961.12
2022-12-08T00:01:50.020Z,961.07
2022-12-08T00:02:39.965Z,961.09
2022-12-08T00:03:30.116Z,961.07
2022-12-08T00:04:19.895Z,961.08
2022-12-08T00:05:09.869Z,961.04
2022-12-08T00:05:59.873Z,961.00
2022-12-08T00:06:49.859Z,961.01
2022-12-08T00:07:39.939Z,961.01
2022-12-08T00:08:29.838Z,961.01
2022-12-08T00:09:19.811Z,960.99
2022-12-08T00:10:39.658Z,960.97
2022-12-08T00:11:00.801Z,960.98
2022-12-08T00:11:49.791Z,960.90
2022-12-08T00:12:39.797Z,960.94
2022-12-08T00:13:29.872Z,960.94
2022-12-08T00:14:19.752Z,960.96
2022-12-08T00:15:11.626Z,960.93
2022-12-08T00:15:59.751Z,960.92
2022-12-08T00:16:49.810Z,960.90
2022-12-08T00:17:39.752Z,960.89
2022-12-08T00:18:29.731Z,960.91
2022-12-08T00:19:19.700Z,960.89
2022-12-08T00:20:09.719Z,960.87
2022-12-08T00:20:59.729Z,960.90
2022-12-08T00:21:49.694Z,960.83
2022-12-08T00:22:39.659Z,960.86
2022-12-08T00:23:29.705Z,960.85
2022-12-08T00:24:19.659Z,960.79
2022-12-08T00:25:09.678Z,960.80
2022-12-08T00:25:59.649Z,960.80
2022-12-08T00:26:49.640Z,960.78
2022-12-08T00:27:39.617Z,960.82
2022-12-08T00:28:29.620Z,960.83
2022-12-08T00:29:19.616Z,960.77
2022-12-08T00:30:09.585Z,960.78
2022-12-08T00:30:59.594Z,960.76
2022-12-08T00:31:49.643Z,960.75
2022-12-08T00:32:39.558Z,960.75
2022-12-08T00:33:29.553Z,960.75
2022-12-08T00:34:19.537Z,960.72
2022-12-08T00:35:09.548Z,960.73
2022-12-08T00:35:59.528Z,960.70
2022-12-08T00:36:49.565Z,960.71
2022-12-08T00:37:39.518Z,960.71
2022-12-08T00:38:29.495Z,960.69
2022-12-08T00:39:19.487Z,960.69
2022-12-08T00:40:09.475Z,960.70
2022-12-08T00:40:59.484Z,960.72
2022-12-08T00:41:49.465Z,960.71
2022-12-08T00:42:39.476Z,960.69
2022-12-08T00:43:29.463Z,960.67
2022-12-08T00:44:19.450Z,960.69
2022-12-08T00:45:09.443Z,960.69
2022-12-08T00:45:59.500Z,960.62
2022-12-08T00:46:49.427Z,960.66
2022-12-08T00:47:39.415Z,960.66
2022-12-08T00:48:29.426Z,960.62
2022-12-08T00:49:19.377Z,960.65
2022-12-08T00:50:09.362Z,960.65
2022-12-08T00:50:59.410Z,960.61
2022-12-08T00:51:49.354Z,960.61
2022-12-08T00:52:39.361Z,960.63
2022-12-08T00:53:29.332Z,960.63
2022-12-08T00:54:19.678Z,960.62
2022-12-08T00:55:09.336Z,960.62
2022-12-08T00:55:59.305Z,960.67
2022-12-08T00:56:49.342Z,960.62
2022-12-08T00:57:39.283Z,960.63
2022-12-08T00:58:29.282Z,960.57
2022-12-08T00:59:19.304Z,960.57
2022-12-08T01:00:30.329Z,960.56
2022-12-08T01:00:59.312Z,960.56
2022-12-08T01:01:49.261Z,960.60
2022-12-08T01:02:39.250Z,960.58
2022-12-08T01:03:29.272Z,960.56
2022-12-08T01:04:19.231Z,960.55
2022-12-08T01:05:09.247Z,960.57
2022-12-08T01:05:59.231Z,960.55
2022-12-08T01:06:49.185Z,960.58
2022-12-08T01:07:39.244Z,960.55
2022-12-08T01:08:29.198Z,960.53
2022-12-08T01:09:19.159Z,960.52
2022-12-08T01:10:09.186Z,960.53
2022-12-08T01:10:59.148Z,960.53
2022-12-08T01:11:49.165Z,960.58
2022-12-08T01:12:39.140Z,960.54
2022-12-08T01:13:29.118Z,960.53
2022-12-08T01:14:19.116Z,960.51
2022-12-08T01:15:09.137Z,960.55
2022-12-08T01:15:59.095Z,960.54
2022-12-08T01:16:49.248Z,960.51
2022-12-08T01:17:39.086Z,960.56
2022-12-08T01:18:29.109Z,960.56
2022-12-08T01:19:19.060Z,960.54
2022-12-08T01:20:09.046Z,960.59
2022-12-08T01:20:59.046Z,960.50
2022-12-08T01:21:49.021Z,960.54
2022-12-08T01:22:39.025Z,960.49
2022-12-08T01:23:50.046Z,960.51
2022-12-08T01:24:18.986Z,960.51
2022-12-08T01:25:08.996Z,960.55
2022-12-08T01:25:58.994Z,960.54
2022-12-08T01:26:48.964Z,960.47
2022-12-08T01:27:38.945Z,960.52
2022-12-08T01:28:28.956Z,960.51
2022-12-08T01:29:18.989Z,960.49
2022-12-08T01:30:08.929Z,960.48
2022-12-08T01:30:58.973Z,960.47
2022-12-08T01:31:48.944Z,960.45
2022-12-08T01:32:38.902Z,960.50
2022-12-08T01:33:28.911Z,960.47
2022-12-08T01:34:18.891Z,960.46
2022-12-08T01:35:08.892Z,960.48
2022-12-08T01:35:58.881Z,960.44
2022-12-08T01:36:48.902Z,960.45
2022-12-08T01:37:38.844Z,960.40
2022-12-08T01:38:28.854Z,960.45
2022-12-08T01:39:18.848Z,960.46
2022-12-08T01:40:08.843Z,960.44
2022-12-08T01:40:58.884Z,960.39
2022-12-08T01:41:48.809Z,960.41
2022-12-08T01:42:38.803Z,960.40
2022-12-08T01:43:28.799Z,960.39
2022-12-08T01:44:18.771Z,960.45
2022-12-08T01:45:08.810Z,960.42
2022-12-08T01:45:58.808Z,960.42
2022-12-08T01:46:48.791Z,960.42
2022-12-08T01:47:38.840Z,960.43
2022-12-08T01:48:28.744Z,960.41
2022-12-08T01:49:18.738Z,960.43
2022-12-08T01:50:08.747Z,960.39
2022-12-08T01:50:58.710Z,960.41
2022-12-08T01:51:48.706Z,960.42
2022-12-08T01:52:38.725Z,960.40
2022-12-08T01:53:28.913Z,960.43
2022-12-08T01:54:18.733Z,960.43
2022-12-08T01:55:08.681Z,960.38
2022-12-08T01:55:58.654Z,960.41
2022-12-08T01:56:48.647Z,960.39
2022-12-08T01:57:38.647Z,960.39
2022-12-08T01:58:28.646Z,960.36
2022-12-08T01:59:18.650Z,960.40
2022-12-08T02:00:08.718Z,960.39
2022-12-08T02:00:58.632Z,960.39
2022-12-08T02:01:48.636Z,960.33
2022-12-08T02:02:38.628Z,960.36
2022-12-08T02:03:28.583Z,960.40
2022-12-08T02:04:18.586Z,960.36
2022-12-08T02:05:08.548Z,960.40
2022-12-08T02:05:58.545Z,960.39
2022-12-08T02:06:48.605Z,960.38
2022-12-08T02:07:38.573Z,960.39
2022-12-08T02:08:28.778Z,960.37
2022-12-08T02:09:18.516Z,960.38
2022-12-08T02:10:08.507Z,960.34
2022-12-08T02:10:58.505Z,960.34
2022-12-08T02:11:48.476Z,960.32
2022-12-08T02:12:38.476Z,960.29
2022-12-08T02:13:28.466Z,960.35
2022-12-08T02:14:18.473Z,960.30
2022-12-08T02:15:08.453Z,960.31
2022-12-08T02:15:58.510Z,960.34
2022-12-08T02:16:48.423Z,960.35
2022-12-08T02:17:38.412Z,960.33
2022-12-08T02:18:28.412Z,960.33
2022-12-08T02:19:34.035Z,960.31
2022-12-08T02:20:09.381Z,960.29
2022-12-08T02:20:58.372Z,960.34
2022-12-08T02:21:48.371Z,960.25
2022-12-08T02:22:38.382Z,960.29
2022-12-08T02:23:28.375Z,960.28
2022-12-08T02:24:18.342Z,960.27
2022-12-08T02:25:08.360Z,960.27
2022-12-08T02:25:58.331Z,960.23
2022-12-08T02:26:48.308Z,960.21
2022-12-08T02:27:38.322Z,960.25
2022-12-08T02:28:28.374Z,960.22
2022-12-08T02:29:18.327Z,960.23
2022-12-08T02:30:08.292Z,960.18
2022-12-08T02:30:58.398Z,960.19
2022-12-08T02:31:48.262Z,960.20
2022-12-08T02:32:38.261Z,960.17
2022-12-08T02:33:28.250Z,960.21
2022-12-08T02:34:18.232Z,960.18
2022-12-08T02:35:08.247Z,960.18
2022-12-08T02:35:58.223Z,960.18
2022-12-08T02:36:48.269Z,960.20
2022-12-08T02:37:38.198Z,960.17
2022-12-08T02:38:28.178Z,960.20
2022-12-08T02:39:18.196Z,960.15
2022-12-08T02:40:08.443Z,960.15
2022-12-08T02:40:58.167Z,960.17
2022-12-08T02:41:48.163Z,960.14
2022-12-08T02:42:38.216Z,960.16
2022-12-08T02:43:28.167Z,960.17
2022-12-08T02:44:18.138Z,960.13
2022-12-08T02:45:08.124Z,960.15
2022-12-08T02:45:58.148Z,960.13
2022-12-08T02:46:48.200Z,960.10
2022-12-08T02:47:38.109Z,960.06
2022-12-08T02:48:28.118Z,960.08
2022-12-08T02:49:18.078Z,960.10
2022-12-08T02:50:08.079Z,960.04
2022-12-08T02:50:58.054Z,960.00
2022-12-08T02:51:48.068Z,960.05
2022-12-08T02:52:38.045Z,960.06
2022-12-08T02:53:28.041Z,960.01
2022-12-08T02:54:18.259Z,959.97
2022-12-08T02:55:08.005Z,959.96
2022-12-08T02:55:58.020Z,959.98
2022-12-08T02:56:48.016Z,959.93
2022-12-08T02:57:37.985Z,959.97
2022-12-08T02:58:27.983Z,959.92
2022-12-08T02:59:17.969Z,959.96
2022-12-08T03:00:29.004Z,959.91
2022-12-08T03:00:57.956Z,959.89
2022-12-08T03:01:47.988Z,959.91
2022-12-08T03:02:37.958Z,959.83
2022-12-08T03:03:27.934Z,959.87
2022-12-08T03:04:17.916Z,959.82
2022-12-08T03:05:07.911Z,959.84
2022-12-08T03:05:58.106Z,959.82
2022-12-08T03:06:47.903Z,959.84
2022-12-08T03:07:37.899Z,959.80
2022-12-08T03:08:27.934Z,959.78
2022-12-08T03:09:17.874Z,959.81
2022-12-08T03:10:07.833Z,959.79
2022-12-08T03:10:57.830Z,959.79
2022-12-08T03:11:47.829Z,959.80
2022-12-08T03:12:37.830Z,959.74
2022-12-08T03:13:27.801Z,959.75
2022-12-08T03:14:17.821Z,959.70
2022-12-08T03:15:07.851Z,959.69
2022-12-08T03:15:57.911Z,959.70
2022-12-08T03:16:47.791Z,959.68
2022-12-08T03:17:37.813Z,959.65
2022-12-08T03:18:27.768Z,959.68
2022-12-08T03:19:17.731Z,959.68
2022-12-08T03:20:07.801Z,959.69
2022-12-08T03:20:57.728Z,959.70
2022-12-08T03:21:47.709Z,959.72
2022-12-08T03:22:37.706Z,959.73
2022-12-08T03:23:27.711Z,959.73
2022-12-08T03:24:17.707Z,959.70
2022-12-08T03:25:07.679Z,959.69
2022-12-08T03:25:57.696Z,959.70
2022-12-08T03:26:47.681Z,959.70
2022-12-08T03:27:37.669Z,959.69
2022-12-08T03:28:27.645Z,959.74
2022-12-08T03:29:17.649Z,959.70
2022-12-08T03:30:07.821Z,959.70
2022-12-08T03:30:57.651Z,959.69
2022-12-08T03:31:47.644Z,959.67
2022-12-08T03:32:37.593Z,959.66
2022-12-08T03:33:27.586Z,959.64
2022-12-08T03:34:17.591Z,959.64
2022-12-08T03:35:07.588Z,959.62
2022-12-08T03:35:57.602Z,959.63
2022-12-08T03:36:47.565Z,959.62
2022-12-08T03:37:37.606Z,959.62
2022-12-08T03:38:27.537Z,959.61
2022-12-08T03:39:17.547Z,959.58
2022-12-08T03:40:07.697Z,959.56
2022-12-08T03:40:57.516Z,959.56
2022-12-08T03:41:47.489Z,959.56
2022-12-08T03:42:37.495Z,959.50
2022-12-08T03:43:27.697Z,959.51
2022-12-08T03:44:17.482Z,959.48
2022-12-08T03:45:07.477Z,959.50
2022-12-08T03:45:57.530Z,959.51
2022-12-08T03:46:47.466Z,959.48
2022-12-08T03:47:37.444Z,959.49
2022-12-08T03:48:27.432Z,959.44
2022-12-08T03:49:17.433Z,959.44
2022-12-08T03:50:07.532Z,959.44
2022-12-08T03:50:57.397Z,959.48
2022-12-08T03:51:47.384Z,959.42
2022-12-08T03:52:37.399Z,959.44
2022-12-08T03:53:27.384Z,959.44
2022-12-08T03:54:17.364Z,959.44
2022-12-08T03:55:07.390Z,959.41
2022-12-08T03:55:57.353Z,959.39
2022-12-08T03:56:47.354Z,959.37
2022-12-08T03:57:37.325Z,959.33
2022-12-08T03:58:27.319Z,959.33
2022-12-08T03:59:17.303Z,959.32
2022-12-08T04:00:07.560Z,959.28
2022-12-08T04:00:57.347Z,959.24
2022-12-08T04:01:47.292Z,959.25
2022-12-08T04:02:37.298Z,959.27
2022-12-08T04:03:27.323Z,959.23
2022-12-08T04:04:17.258Z,959.26
2022-12-08T04:05:07.264Z,959.25
2022-12-08T04:05:57.250Z,959.27
2022-12-08T04:06:47.312Z,959.27
2022-12-08T04:07:37.311Z,959.29
2022-12-08T04:08:27.251Z,959.27
2022-12-08T04:09:17.190Z,959.30
2022-12-08T04:10:07.607Z,959.29
2022-12-08T04:10:57.190Z,959.27
2022-12-08T04:11:47.173Z,959.25
2022-12-08T04:12:37.207Z,959.19
2022-12-08T04:13:27.159Z,959.20
2022-12-08T04:14:17.147Z,959.17
2022-12-08T04:15:07.138Z,959.18
2022-12-08T04:15:57.160Z,959.11
2022-12-08T04:16:47.130Z,959.13
2022-12-08T04:17:37.100Z,959.12
2022-12-08T04:18:27.344Z,959.17
2022-12-08T04:19:17.086Z,959.15
2022-12-08T04:20:07.257Z,959.13
2022-12-08T04:20:57.075Z,959.09
2022-12-08T04:21:47.057Z,959.11
2022-12-08T04:22:37.057Z,959.12
2022-12-08T04:23:27.063Z,959.12
2022-12-08T04:24:17.095Z,959.09
2022-12-08T04:25:07.019Z,959.08
2022-12-08T04:25:57.032Z,959.13
2022-12-08T04:26:47.016Z,959.10
2022-12-08T04:27:36.994Z,959.11
2022-12-08T04:28:26.984Z,959.12
2022-12-08T04:29:16.996Z,959.12
2022-12-08T04:30:07.536Z,959.12
2022-12-08T04:30:57.077Z,959.09
2022-12-08T04:31:46.990Z,959.09
2022-12-08T04:32:36.933Z,959.11
2022-12-08T04:33:26.951Z,959.11
2022-12-08T04:34:16.954Z,959.15
2022-12-08T04:35:06.914Z,959.13
2022-12-08T04:35:56.932Z,959.14
2022-12-08T04:36:46.911Z,959.14
2022-12-08T04:37:36.885Z,959.12
2022-12-08T04:38:26.964Z,959.12
2022-12-08T04:39:16.907Z,959.11
2022-12-08T04:40:07.226Z,959.16
2022-12-08T04:40:56.854Z,959.14
2022-12-08T04:41:46.838Z,959.11
2022-12-08T04:42:36.853Z,959.14
2022-12-08T04:43:26.812Z,959.12
2022-12-08T04:44:17.040Z,959.12
2022-12-08T04:45:06.839Z,959.21
2022-12-08T04:45:56.805Z,959.11
2022-12-08T04:46:46.862Z,959.10
2022-12-08T04:47:36.802Z,959.08
2022-12-08T04:48:26.799Z,959.07
2022-12-08T04:49:16.770Z,959.11
2022-12-08T04:50:07.018Z,959.09
2022-12-08T04:50:56.750Z,959.06
2022-12-08T04:51:46.745Z,959.07
2022-12-08T04:52:36.759Z,959.06
2022-12-08T04:53:26.717Z,959.06
2022-12-08T04:54:16.737Z,959.03
2022-12-08T04:55:06.698Z,959.04
2022-12-08T04:55:56.715Z,959.08
2022-12-08T04:56:46.689Z,959.06
2022-12-08T04:57:36.678Z,959.02
2022-12-08T04:58:26.703Z,959.02
2022-12-08T04:59:16.667Z,958.96
2022-12-08T05:00:07.110Z,959.01
2022-12-08T05:00:56.695Z,958.99
2022-12-08T05:01:46.783Z,958.95
2022-12-08T05:02:36.670Z,958.94
2022-12-08T05:03:28.686Z,959.02
2022-12-08T05:04:16.636Z,959.03
2022-12-08T05:05:06.602Z,959.00
2022-12-08T05:05:56.596Z,959.03
2022-12-08T05:06:46.577Z,959.00
2022-12-08T05:07:36.664Z,958.99
2022-12-08T05:08:26.661Z,958.98
2022-12-08T05:09:16.557Z,958.92
2022-12-08T05:10:06.961Z,958.93
2022-12-08T05:10:56.538Z,958.97
2022-12-08T05:11:49.013Z,958.93
2022-12-08T05:12:36.505Z,958.95
2022-12-08T05:13:26.504Z,958.92
2022-12-08T05:14:16.511Z,958.93
2022-12-08T05:15:06.506Z,958.98
2022-12-08T05:15:56.732Z,958.98
2022-12-08T05:16:46.500Z,959.01
2022-12-08T05:17:36.453Z,959.00
2022-12-08T05:18:26.432Z,959.02
2022-12-08T05:19:16.451Z,958.96
2022-12-08T05:20:06.799Z,958.99
2022-12-08T05:20:56.432Z,958.99
2022-12-08T05:21:46.454Z,958.99
2022-12-08T05:22:36.393Z,959.00
2022-12-08T05:23:26.392Z,958.98
2022-12-08T05:24:16.388Z,958.93
2022-12-08T05:25:06.399Z,959.01
2022-12-08T05:25:56.385Z,958.97
2022-12-08T05:26:46.377Z,958.96
2022-12-08T05:27:36.671Z,958.95
2022-12-08T05:28:43.303Z,958.93
2022-12-08T05:29:17.325Z,958.93
2022-12-08T05:30:06.616Z,958.97
2022-12-08T05:30:56.319Z,958.95
2022-12-08T05:31:46.330Z,958.98
2022-12-08T05:32:36.279Z,959.00
2022-12-08T05:33:26.325Z,958.95
2022-12-08T05:34:16.288Z,959.01
2022-12-08T05:35:06.268Z,958.92
2022-12-08T05:35:56.247Z,958.94
2022-12-08T05:36:46.261Z,958.91
2022-12-08T05:37:36.292Z,958.94
2022-12-08T05:38:26.239Z,958.96
2022-12-08T05:39:16.227Z,958.95
2022-12-08T05:40:06.658Z,958.93
2022-12-08T05:40:56.230Z,958.91
2022-12-08T05:41:46.207Z,958.92
2022-12-08T05:42:36.180Z,958.95
2022-12-08T05:43:26.190Z,958.92
2022-12-08T05:44:16.166Z,958.94
2022-12-08T05:45:06.157Z,958.96
2022-12-08T05:45:56.218Z,958.95
2022-12-08T05:46:46.147Z,958.94
2022-12-08T05:47:36.470Z,958.90
2022-12-08T05:48:26.136Z,958.90
2022-12-08T05:49:16.116Z,958.90
2022-12-08T05:50:06.584Z,958.90
2022-12-08T05:50:56.084Z,958.89
2022-12-08T05:51:46.088Z,958.88
2022-12-08T05:52:36.081Z,958.84
2022-12-08T05:53:26.113Z,958.85
2022-12-08T05:54:16.053Z,958.87
2022-12-08T05:55:06.044Z,958.91
2022-12-08T05:55:56.052Z,958.87
2022-12-08T05:56:46.041Z,958.90
2022-12-08T05:57:36.016Z,958.84
2022-12-08T05:58:26.010Z,958.85
2022-12-08T05:59:16.033Z,958.86
2022-12-08T06:00:06.244Z,958.85
2022-12-08T06:00:56.008Z,958.84
2022-12-08T06:01:46.071Z,958.85
2022-12-08T06:02:36.233Z,958.81
2022-12-08T06:03:25.989Z,958.84
2022-12-08T06:04:15.961Z,958.80
2022-12-08T06:05:05.943Z,958.79
2022-12-08T06:05:55.912Z,958.77
2022-12-08T06:06:45.931Z,958.77
2022-12-08T06:07:36.669Z,958.77
2022-12-08T06:08:25.992Z,958.81
2022-12-08T06:09:15.886Z,958.78
2022-12-08T06:10:06.215Z,958.76
2022-12-08T06:10:55.933Z,958.74
2022-12-08T06:11:45.869Z,958.76
2022-12-08T06:12:35.867Z,958.78
2022-12-08T06:13:25.872Z,958.78
2022-12-08T06:14:15.846Z,958.77
2022-12-08T06:15:05.818Z,958.79
2022-12-08T06:15:55.855Z,958.82
2022-12-08T06:16:45.849Z,958.80
2022-12-08T06:17:35.793Z,958.84
2022-12-08T06:18:31.147Z,958.84
2022-12-08T06:19:16.818Z,958.81
2022-12-08T06:20:06.080Z,958.80
2022-12-08T06:20:55.758Z,958.80
2022-12-08T06:21:45.747Z,958.80
2022-12-08T06:22:35.739Z,958.78
2022-12-08T06:23:25.758Z,958.81
2022-12-08T06:24:15.724Z,958.77
2022-12-08T06:25:09.563Z,958.79
2022-12-08T06:25:55.710Z,958.76
2022-12-08T06:26:45.750Z,958.83
2022-12-08T06:27:35.695Z,958.81
2022-12-08T06:28:25.676Z,958.80
2022-12-08T06:29:15.686Z,958.79
2022-12-08T06:30:06.009Z,958.80
2022-12-08T06:30:55.895Z,958.77
2022-12-08T06:31:45.696Z,958.79
2022-12-08T06:32:35.688Z,958.80
2022-12-08T06:33:25.633Z,958.77
2022-12-08T06:34:15.632Z,958.84
2022-12-08T06:35:05.604Z,958.79
2022-12-08T06:35:55.613Z,958.79
2022-12-08T06:36:45.814Z,958.80
2022-12-08T06:37:35.573Z,958.77
2022-12-08T06:38:25.593Z,958.80
2022-12-08T06:39:15.563Z,958.78
2022-12-08T06:40:05.963Z,958.78
2022-12-08T06:40:55.540Z,958.80
2022-12-08T06:41:45.553Z,958.77
2022-12-08T06:42:35.594Z,958.76
2022-12-08T06:43:25.514Z,958.73
2022-12-08T06:44:15.524Z,958.73
2022-12-08T06:45:05.547Z,958.72
2022-12-08T06:45:55.560Z,958.73
2022-12-08T06:46:45.489Z,958.70
2022-12-08T06:47:35.483Z,958.72
2022-12-08T06:48:25.701Z,958.67
2022-12-08T06:49:15.463Z,958.66
2022-12-08T06:50:05.713Z,958.66
2022-12-08T06:50:55.444Z,958.71
2022-12-08T06:51:45.443Z,958.75
2022-12-08T06:52:40.858Z,958.70
2022-12-08T06:53:26.458Z,958.72
2022-12-08T06:54:15.426Z,958.74
2022-12-08T06:55:05.405Z,958.72
2022-12-08T06:55:59.753Z,958.70
2022-12-08T06:56:45.381Z,958.74
2022-12-08T06:57:35.377Z,958.74
2022-12-08T06:58:25.359Z,958.73
2022-12-08T06:59:15.596Z,958.75
2022-12-08T07:00:05.756Z,958.75
2022-12-08T07:00:55.385Z,958.74
2022-12-08T07:01:45.382Z,958.76
2022-12-08T07:02:35.405Z,958.76
2022-12-08T07:03:25.322Z,958.73
2022-12-08T07:04:15.303Z,958.76
2022-12-08T07:05:05.706Z,958.76
2022-12-08T07:05:58.907Z,958.77
2022-12-08T07:06:46.274Z,958.74
2022-12-08T07:07:35.254Z,958.75
2022-12-08T07:08:25.322Z,958.73
2022-12-08T07:09:15.237Z,958.79
2022-12-08T07:10:05.454Z,958.78
2022-12-08T07:10:55.426Z,958.75
2022-12-08T07:11:45.207Z,958.78
2022-12-08T07:12:35.212Z,958.82
2022-12-08T07:13:25.203Z,958.81
2022-12-08T07:14:15.184Z,958.81
2022-12-08T07:15:05.189Z,958.82
2022-12-08T07:15:55.178Z,958.79
2022-12-08T07:16:45.383Z,958.79
2022-12-08T07:17:35.172Z,958.78
2022-12-08T07:18:25.138Z,958.78
2022-12-08T07:19:15.139Z,958.78
2022-12-08T07:20:05.484Z,958.78
2022-12-08T07:20:55.124Z,958.78
2022-12-08T07:21:45.094Z,958.78
2022-12-08T07:22:35.343Z,958.76
2022-12-08T07:23:25.086Z,958.76
2022-12-08T07:24:15.091Z,958.74
2022-12-08T07:25:05.074Z,958.73
2022-12-08T07:25:55.069Z,958.73
2022-12-08T07:26:45.044Z,958.76
2022-12-08T07:27:35.032Z,958.77
2022-12-08T07:28:25.074Z,958.72
2022-12-08T07:29:15.011Z,958.74
2022-12-08T07:30:05.276Z,958.73
2022-12-08T07:30:55.037Z,958.72
2022-12-08T07:31:45.007Z,958.72
2022-12-08T07:32:34.981Z,958.68
2022-12-08T07:33:24.972Z,958.69
2022-12-08T07:34:14.993Z,958.69
2022-12-08T07:35:04.960Z,958.67
2022-12-08T07:35:54.959Z,958.68
2022-12-08T07:36:45.270Z,958.72
2022-12-08T07:37:34.919Z,958.67
2022-12-08T07:38:24.923Z,958.72
2022-12-08T07:39:14.921Z,958.72
2022-12-08T07:40:05.279Z,958.73
2022-12-08T07:40:54.898Z,958.71
2022-12-08T07:41:44.899Z,958.72
2022-12-08T07:42:34.879Z,958.72
2022-12-08T07:43:24.909Z,958.74
2022-12-08T07:44:14.854Z,958.73
2022-12-08T07:45:04.849Z,958.75
2022-12-08T07:45:54.976Z,958.76
2022-12-08T07:46:44.903Z,958.76
2022-12-08T07:47:34.808Z,958.79
2022-12-08T07:48:24.827Z,958.79
2022-12-08T07:49:14.799Z,958.79
2022-12-08T07:50:05.159Z,958.78
2022-12-08T07:50:54.788Z,958.77
2022-12-08T07:51:44.847Z,958.76
2022-12-08T07:52:34.775Z,958.80
2022-12-08T07:53:24.756Z,958.80
2022-12-08T07:54:14.765Z,958.72
2022-12-08T07:55:04.746Z,958.75
2022-12-08T07:55:54.721Z,958.74
2022-12-08T07:56:44.769Z,958.74
2022-12-08T07:57:34.947Z,958.74
2022-12-08T07:58:24.697Z,958.73
2022-12-08T07:59:14.717Z,958.73
2022-12-08T08:00:04.984Z,958.76
2022-12-08T08:00:54.871Z,958.74
2022-12-08T08:01:45.580Z,958.77
2022-12-08T08:02:34.814Z,958.76
2022-12-08T08:03:24.717Z,958.75
2022-12-08T08:04:14.689Z,958.76
2022-12-08T08:05:04.701Z,958.78
2022-12-08T08:05:54.625Z,958.73
2022-12-08T08:06:44.625Z,958.68
2022-12-08T08:07:34.621Z,958.72
2022-12-08T08:08:24.660Z,958.72
2022-12-08T08:09:14.631Z,958.70
2022-12-08T08:10:04.877Z,958.72
2022-12-08T08:10:54.585Z,958.73
2022-12-08T08:12:01.093Z,958.70
2022-12-08T08:12:35.547Z,958.72
2022-12-08T08:13:24.553Z,958.69
2022-12-08T08:14:14.532Z,958.71
2022-12-08T08:15:05.900Z,958.73
2022-12-08T08:15:54.622Z,958.74
2022-12-08T08:16:44.599Z,958.70
2022-12-08T08:17:34.768Z,958.73
2022-12-08T08:18:24.575Z,958.74
2022-12-08T08:19:14.513Z,958.67
2022-12-08T08:20:04.699Z,958.66
2022-12-08T08:20:54.471Z,958.65
2022-12-08T08:21:46.145Z,958.68
2022-12-08T08:22:34.453Z,958.65
2022-12-08T08:23:24.750Z,958.65
2022-12-08T08:24:14.430Z,958.63
2022-12-08T08:25:04.447Z,958.60
2022-12-08T08:25:54.636Z,958.64
2022-12-08T08:26:44.425Z,958.69
2022-12-08T08:27:34.380Z,958.66
2022-12-08T08:28:24.395Z,958.65
2022-12-08T08:29:14.479Z,958.71
2022-12-08T08:30:04.592Z,958.64
2022-12-08T08:30:54.403Z,958.65
2022-12-08T08:31:44.376Z,958.62
2022-12-08T08:32:34.326Z,958.67
2022-12-08T08:33:24.343Z,958.61
2022-12-08T08:34:14.372Z,958.63
2022-12-08T08:35:04.306Z,958.63
2022-12-08T08:35:54.306Z,958.63
2022-12-08T08:36:44.425Z,958.63
2022-12-08T08:37:34.285Z,958.67
2022-12-08T08:38:24.288Z,958.65
2022-12-08T08:39:14.245Z,958.60
2022-12-08T08:40:05.709Z,958.61
2022-12-08T08:40:54.256Z,958.61
2022-12-08T08:41:44.239Z,958.59
2022-12-08T08:42:34.224Z,958.58
2022-12-08T08:43:24.246Z,958.58
2022-12-08T08:44:14.203Z,958.57
2022-12-08T08:45:20.761Z,958.58
2022-12-08T08:45:54.255Z,958.59
2022-12-08T08:46:44.310Z,958.56
2022-12-08T08:47:34.178Z,958.56
2022-12-08T08:48:24.154Z,958.51
2022-12-08T08:49:14.143Z,958.56
2022-12-08T08:50:04.658Z,958.53
2022-12-08T09:01:49.581Z,958.50
2022-12-08T09:02:27.483Z,958.51
2022-12-08T09:03:17.481Z,958.47
2022-12-08T09:04:07.522Z,958.45
2022-12-08T09:04:57.511Z,958.46
2022-12-08T09:05:47.498Z,958.42
2022-12-08T09:06:37.478Z,958.45
2022-12-08T09:07:27.432Z,958.46
2022-12-08T09:08:17.509Z,958.46
2022-12-08T09:09:07.380Z,958.48
2022-12-08T09:10:01.645Z,958.40
2022-12-08T09:10:47.290Z,958.39
2022-12-08T09:11:37.278Z,958.42
2022-12-08T09:12:27.290Z,958.38
2022-12-08T09:13:17.280Z,958.42
2022-12-08T09:14:07.250Z,958.38
2022-12-08T09:14:57.270Z,958.43
2022-12-08T09:15:47.279Z,958.42
2022-12-08T09:16:41.972Z,958.43
2022-12-08T09:17:28.247Z,958.43
2022-12-08T09:18:17.199Z,958.39
2022-12-08T09:19:15.674Z,958.36
2022-12-08T09:19:57.215Z,958.39
2022-12-08T09:20:47.187Z,958.39
2022-12-08T09:21:37.179Z,958.34
2022-12-08T09:22:27.172Z,958.34
2022-12-08T09:23:17.155Z,958.36
2022-12-08T09:24:07.195Z,958.38
2022-12-08T09:25:02.693Z,958.36
2022-12-08T09:25:47.133Z,958.34
2022-12-08T09:26:37.126Z,958.38
2022-12-08T09:27:27.145Z,958.36
2022-12-08T09:28:17.102Z,958.36
2022-12-08T09:29:07.116Z,958.37
2022-12-08T09:29:57.086Z,958.35
2022-12-08T09:30:47.365Z,958.35
2022-12-08T09:31:37.130Z,958.34
2022-12-08T09:32:27.065Z,958.33
2022-12-08T09:33:17.055Z,958.36
2022-12-08T09:34:07.079Z,958.35
2022-12-08T09:34:57.026Z,958.34
2022-12-08T09:35:47.041Z,958.33
2022-12-08T09:36:37.245Z,958.33
2022-12-08T09:37:27.000Z,958.39
2022-12-08T09:38:17.014Z,958.36
2022-12-08T09:39:07.002Z,958.34
2022-12-08T09:39:57.001Z,958.37
2022-12-08T09:40:46.980Z,958.37
2022-12-08T09:41:42.061Z,958.35
2022-12-08T09:42:28.193Z,958.35
2022-12-08T09:43:16.938Z,958.25
2022-12-08T09:44:06.929Z,958.32
2022-12-08T09:44:56.941Z,958.28
2022-12-08T09:45:46.902Z,958.25
2022-12-08T09:46:36.980Z,958.26
2022-12-08T09:47:32.057Z,958.24
2022-12-08T09:48:18.900Z,958.25
2022-12-08T09:49:06.910Z,958.29
2022-12-08T09:49:56.876Z,958.26
2022-12-08T09:50:46.853Z,958.26
2022-12-08T09:51:36.849Z,958.21
2022-12-08T09:52:26.840Z,958.24
2022-12-08T09:53:16.827Z,958.20
2022-12-08T09:54:06.889Z,958.19
2022-12-08T09:54:56.830Z,958.19
2022-12-08T09:55:46.815Z,958.18
2022-12-08T09:56:36.809Z,958.15
2022-12-08T09:57:26.774Z,958.20
2022-12-08T09:58:16.779Z,958.24
2022-12-08T09:59:06.777Z,958.18
2022-12-08T09:59:56.991Z,958.18
2022-12-08T10:00:46.745Z,958.17
2022-12-08T10:01:36.806Z,958.17
2022-12-08T10:02:26.738Z,958.19
2022-12-08T10:03:17.179Z,958.16
2022-12-08T10:04:06.716Z,958.16
2022-12-08T10:04:56.800Z,958.19
2022-12-08T10:05:46.939Z,958.17
2022-12-08T10:06:36.698Z,958.17
2022-12-08T10:07:26.686Z,958.15
2022-12-08T10:08:16.696Z,958.13
2022-12-08T10:09:11.101Z,958.12
2022-12-08T10:09:57.656Z,958.11
2022-12-08T10:10:46.682Z,958.11
2022-12-08T10:11:36.654Z,958.09
2022-12-08T10:12:26.622Z,958.05
2022-12-08T10:13:16.626Z,958.06
2022-12-08T10:14:06.614Z,958.06
2022-12-08T10:14:56.591Z,958.03
2022-12-08T10:15:46.634Z,958.05
2022-12-08T10:16:36.655Z,958.04
2022-12-08T10:17:30.368Z,958.05
2022-12-08T10:18:16.573Z,958.07
2022-12-08T10:19:06.554Z,958.01
2022-12-08T10:19:56.547Z,958.00
2022-12-08T10:20:46.525Z,958.02
2022-12-08T10:21:36.533Z,958.02
2022-12-08T10:22:26.512Z,957.95
2022-12-08T10:23:16.717Z,957.98
2022-12-08T10:24:06.498Z,957.99
2022-12-08T10:24:56.527Z,957.97
2022-12-08T10:25:46.475Z,957.95
2022-12-08T10:26:36.471Z,957.89
2022-12-08T10:27:26.450Z,957.87
2022-12-08T10:28:16.451Z,957.89
2022-12-08T10:29:08.023Z,957.87
2022-12-08T10:29:56.420Z,957.88
2022-12-08T10:30:46.453Z,957.86
2022-12-08T10:31:36.522Z,957.86
2022-12-08T10:32:26.391Z,957.86
2022-12-08T10:33:16.399Z,957.84
2022-12-08T10:34:06.381Z,957.85